createdAt,value
2022-09-27T00:01:11.959Z,10.80
2022-09-27T00:03:42.945Z,10.80
2022-09-27T00:06:14.388Z,10.70
2022-09-27T00:08:42.373Z,10.70
2022-09-27T00:11:18.879Z,10.60
2022-09-27T00:13:48.453Z,10.60
2022-09-27T00:16:18.382Z,10.60
2022-09-27T00:18:45.565Z,10.50
2022-09-27T00:21:16.021Z,10.50
2022-09-27T00:23:43.304Z,10.50
2022-09-27T00:26:16.026Z,10.50
2022-09-27T00:28:45.815Z,10.40
2022-09-27T00:31:31.869Z,10.40
2022-09-27T00:34:01.554Z,10.40
2022-09-27T00:36:29.661Z,10.40
2022-09-27T00:38:57.056Z,10.40
2022-09-27T00:41:29.432Z,10.40
2022-09-27T00:44:23.047Z,10.40
2022-09-27T00:47:00.711Z,10.40
2022-09-27T00:50:06.631Z,10.30
2022-09-27T00:52:51.442Z,10.30
2022-09-27T00:55:24.558Z,10.30
2022-09-27T00:57:52.589Z,10.30
2022-09-27T01:00:22.330Z,10.30
2022-09-27T01:02:55.206Z,10.30
2022-09-27T01:05:28.158Z,10.30
2022-09-27T01:07:55.346Z,10.30
2022-09-27T01:10:23.714Z,10.30
2022-09-27T01:13:15.901Z,10.30
2022-09-27T01:16:19.961Z,10.30
2022-09-27T01:19:07.367Z,10.30
2022-09-27T01:21:45.037Z,10.30
2022-09-27T01:24:24.866Z,10.40
2022-09-27T01:27:16.391Z,10.40
2022-09-27T01:30:11.415Z,10.40
2022-09-27T01:33:16.316Z,10.50
2022-09-27T01:35:59.726Z,10.50
2022-09-27T01:38:45.605Z,10.50
2022-09-27T01:41:25.679Z,10.50
2022-09-27T01:44:11.190Z,10.50
2022-09-27T01:46:51.620Z,10.60
2022-09-27T01:49:30.826Z,10.60
2022-09-27T01:52:05.046Z,10.60
2022-09-27T01:54:43.215Z,10.60
2022-09-27T01:57:17.660Z,10.60
2022-09-27T01:59:53.102Z,10.60
2022-09-27T02:02:24.537Z,10.60
2022-09-27T02:04:56.462Z,10.70
2022-09-27T02:07:32.624Z,10.70
2022-09-27T02:10:13.486Z,10.70
2022-09-27T02:13:00.770Z,10.70
2022-09-27T02:15:30.499Z,10.70
2022-09-27T02:18:16.928Z,10.70
2022-09-27T02:20:55.676Z,10.70
2022-09-27T02:23:31.356Z,10.70
2022-09-27T02:25:59.686Z,10.80
2022-09-27T02:28:39.684Z,10.80
2022-09-27T02:31:06.955Z,10.80
2022-09-27T02:33:48.796Z,10.80
2022-09-27T02:36:18.668Z,10.80
2022-09-27T02:38:46.282Z,10.80
2022-09-27T02:41:20.899Z,10.80
2022-09-27T02:43:52.607Z,10.80
2022-09-27T02:46:38.267Z,10.70
2022-09-27T02:49:29.101Z,10.80
2022-09-27T02:52:02.292Z,10.80
2022-09-27T02:55:03.390Z,10.70
2022-09-27T02:58:04.298Z,10.70
2022-09-27T03:00:47.320Z,10.70
2022-09-27T03:03:35.581Z,10.70
2022-09-27T03:06:16.494Z,10.70
2022-09-27T03:08:49.729Z,10.70
2022-09-27T03:11:17.116Z,10.70
2022-09-27T03:14:01.826Z,10.70
2022-09-27T03:16:32.569Z,10.60
2022-09-27T03:18:59.627Z,10.70
2022-09-27T03:21:26.679Z,10.70
2022-09-27T03:23:56.674Z,10.70
2022-09-27T03:26:28.218Z,10.60
2022-09-27T03:28:55.745Z,10.60
2022-09-27T03:31:22.829Z,10.60
2022-09-27T03:33:49.893Z,10.60
2022-09-27T03:36:17.314Z,10.60
2022-09-27T03:38:44.404Z,10.60
2022-09-27T03:41:11.626Z,10.60
2022-09-27T03:43:41.629Z,10.60
2022-09-27T03:46:08.721Z,10.60
2022-09-27T03:48:35.834Z,10.60
2022-09-27T03:51:03.374Z,10.60
2022-09-27T03:53:30.779Z,10.60
2022-09-27T03:55:57.768Z,10.60
2022-09-27T03:58:27.658Z,10.60
2022-09-27T04:00:54.825Z,10.70
2022-09-27T04:03:24.438Z,10.70
2022-09-27T04:05:51.871Z,10.70
2022-09-27T04:08:21.612Z,10.60
2022-09-27T04:10:48.706Z,10.70
2022-09-27T04:13:16.146Z,10.60
2022-09-27T04:15:43.535Z,10.60
2022-09-27T04:18:13.149Z,10.60
2022-09-27T04:20:40.788Z,10.60
2022-09-27T04:23:10.384Z,10.50
2022-09-27T04:25:38.069Z,10.50
2022-09-27T04:28:08.891Z,10.50
2022-09-27T04:30:38.952Z,10.50
2022-09-27T04:33:06.443Z,10.50
2022-09-27T04:35:33.565Z,10.50
2022-09-27T04:38:00.863Z,10.50
2022-09-27T04:40:28.546Z,10.50
2022-09-27T04:42:57.956Z,10.50
2022-09-27T04:45:25.285Z,10.50
2022-09-27T04:47:52.789Z,10.50
2022-09-27T04:50:19.893Z,10.50
2022-09-27T04:52:51.248Z,10.50
2022-09-27T04:55:21.287Z,10.50
2022-09-27T04:57:49.224Z,10.50
2022-09-27T05:00:17.018Z,10.60
2022-09-27T05:02:45.726Z,10.60
2022-09-27T05:05:12.814Z,10.60
2022-09-27T05:07:41.326Z,10.60
2022-09-27T05:10:09.618Z,10.60
2022-09-27T05:12:36.786Z,10.60
2022-09-27T05:15:06.896Z,10.60
2022-09-27T05:17:34.336Z,10.70
2022-09-27T05:20:01.852Z,10.60
2022-09-27T05:22:29.004Z,10.60
2022-09-27T05:24:58.929Z,10.70
2022-09-27T05:27:25.933Z,10.60
2022-09-27T05:29:53.145Z,10.70
2022-09-27T05:32:20.580Z,10.70
2022-09-27T05:34:49.770Z,10.80
2022-09-27T05:37:16.761Z,10.80
2022-09-27T05:39:46.623Z,10.80
2022-09-27T05:42:13.635Z,10.80
2022-09-27T05:44:40.939Z,10.90
2022-09-27T05:47:08.540Z,10.90
2022-09-27T05:49:40.138Z,10.90
2022-09-27T05:52:14.852Z,11.00
2022-09-27T05:54:43.551Z,11.00
2022-09-27T05:57:10.769Z,11.00
2022-09-27T05:59:42.813Z,11.00
2022-09-27T06:02:12.136Z,11.10
2022-09-27T06:04:39.243Z,11.00
2022-09-27T06:07:06.582Z,11.00
2022-09-27T06:09:34.387Z,11.00
2022-09-27T06:12:01.554Z,10.90
2022-09-27T06:14:33.061Z,10.90
2022-09-27T06:17:00.720Z,10.90
2022-09-27T06:19:30.050Z,10.90
2022-09-27T06:21:59.571Z,10.90
2022-09-27T06:24:27.137Z,11.00
2022-09-27T06:26:56.401Z,11.00
2022-09-27T06:29:25.612Z,11.00
2022-09-27T06:31:56.070Z,11.10
2022-09-27T06:34:23.175Z,11.10
2022-09-27T06:36:51.541Z,11.10
2022-09-27T06:39:21.881Z,11.20
2022-09-27T06:41:48.876Z,11.20
2022-09-27T06:44:15.862Z,11.20
2022-09-27T06:46:47.901Z,11.30
2022-09-27T06:49:17.544Z,11.40
2022-09-27T06:51:47.229Z,11.50
2022-09-27T06:54:14.331Z,11.60
2022-09-27T06:56:43.885Z,11.70
2022-09-27T06:59:13.790Z,11.70
2022-09-27T07:01:41.092Z,11.80
2022-09-27T07:04:10.578Z,11.80
2022-09-27T07:06:40.836Z,11.90
2022-09-27T07:09:08.200Z,11.90
2022-09-27T07:11:37.603Z,11.90
2022-09-27T07:14:05.158Z,11.90
2022-09-27T07:16:34.753Z,11.90
2022-09-27T07:19:04.706Z,11.90
2022-09-27T07:21:32.023Z,11.90
2022-09-27T07:23:59.161Z,11.90
2022-09-27T07:26:28.834Z,12.10
2022-09-27T07:28:58.496Z,12.20
2022-09-27T07:31:27.817Z,12.30
2022-09-27T07:33:57.050Z,12.50
2022-09-27T07:36:24.430Z,12.60
2022-09-27T07:38:51.564Z,12.70
2022-09-27T07:44:22.491Z,12.70
2022-09-27T07:46:50.356Z,12.80
2022-09-27T07:52:59.057Z,12.90
2022-09-27T07:55:26.151Z,12.70
2022-09-27T07:58:01.880Z,12.60
2022-09-27T08:00:29.696Z,12.60
2022-09-27T08:02:58.952Z,12.60
2022-09-27T08:05:26.384Z,12.60
2022-09-27T08:07:56.767Z,12.60
2022-09-27T08:10:23.821Z,12.70
2022-09-27T08:12:51.223Z,12.70
2022-09-27T08:15:18.668Z,12.70
2022-09-27T08:17:45.664Z,12.70
2022-09-27T08:20:12.992Z,12.90
2022-09-27T08:22:42.333Z,13.10
2022-09-27T08:25:12.028Z,13.20
2022-09-27T08:27:39.298Z,13.20
2022-09-27T08:30:07.160Z,13.30
2022-09-27T08:32:34.649Z,13.40
2022-09-27T08:35:01.854Z,13.40
2022-09-27T08:37:31.919Z,13.40
2022-09-27T08:39:58.928Z,13.60
2022-09-27T08:42:43.187Z,13.60
2022-09-27T08:45:20.891Z,13.70
2022-09-27T08:47:58.964Z,13.60
2022-09-27T08:50:44.458Z,13.60
2022-09-27T08:53:17.897Z,13.60
2022-09-27T08:55:48.000Z,13.60
2022-09-27T08:58:35.595Z,13.50
2022-09-27T09:01:12.099Z,13.30
2022-09-27T09:03:47.715Z,13.20
2022-09-27T09:06:15.668Z,13.00
2022-09-27T09:09:17.226Z,12.90
2022-09-27T09:12:12.998Z,12.90
2022-09-27T09:14:46.307Z,13.20
2022-09-27T09:17:28.740Z,13.30
2022-09-27T09:20:13.490Z,13.40
2022-09-27T09:23:20.978Z,13.50
2022-09-27T09:26:09.919Z,13.50
2022-09-27T09:28:44.320Z,13.40
2022-09-27T09:31:50.829Z,13.40
2022-09-27T09:34:35.535Z,13.40
2022-09-27T09:37:11.571Z,13.40
2022-09-27T09:42:29.199Z,13.70
2022-09-27T09:45:21.433Z,13.80
2022-09-27T09:47:54.115Z,13.90
2022-09-27T09:53:19.724Z,13.60
2022-09-27T09:56:02.744Z,13.70
2022-09-27T09:58:33.816Z,13.60
2022-09-27T10:01:15.597Z,13.50
2022-09-27T10:03:42.732Z,13.50
2022-09-27T10:06:11.954Z,13.50
2022-09-27T10:08:42.465Z,13.60
2022-09-27T10:11:22.547Z,13.60
2022-09-27T10:13:53.479Z,13.60
2022-09-27T10:16:21.787Z,13.60
2022-09-27T10:18:52.545Z,13.70
2022-09-27T10:21:22.164Z,13.70
2022-09-27T10:24:12.273Z,13.90
2022-09-27T10:26:46.002Z,14.00
2022-09-27T10:29:25.383Z,14.20
2022-09-27T10:31:53.575Z,14.60
2022-09-27T10:34:31.203Z,14.90
2022-09-27T10:37:05.303Z,15.30
2022-09-27T10:39:32.978Z,15.70
2022-09-27T10:42:02.788Z,16.00
2022-09-27T10:44:31.576Z,16.40
2022-09-27T10:47:07.379Z,16.60
2022-09-27T10:49:42.633Z,16.70
2022-09-27T10:52:35.909Z,16.30
2022-09-27T10:57:39.798Z,15.90
2022-09-27T11:00:25.512Z,15.60
2022-09-27T11:03:01.169Z,15.30
2022-09-27T11:05:39.315Z,15.00
2022-09-27T11:08:18.816Z,14.70
2022-09-27T11:11:02.588Z,14.50
2022-09-27T11:13:31.873Z,14.40
2022-09-27T11:16:05.078Z,14.20
2022-09-27T11:19:03.251Z,14.10
2022-09-27T11:21:36.933Z,14.10
2022-09-27T11:24:11.156Z,14.10
2022-09-27T11:27:17.141Z,14.20
2022-09-27T11:29:56.961Z,14.30
2022-09-27T11:32:50.876Z,14.50
2022-09-27T11:35:36.221Z,14.50
2022-09-27T11:38:03.783Z,14.60
2022-09-27T11:40:45.817Z,14.60
2022-09-27T11:43:21.974Z,14.60
2022-09-27T11:46:19.319Z,14.60
2022-09-27T11:48:55.972Z,14.50
2022-09-27T11:51:35.058Z,14.60
2022-09-27T11:54:15.452Z,14.60
2022-09-27T11:56:54.809Z,14.50
2022-09-27T11:59:37.484Z,14.40
2022-09-27T12:02:13.356Z,14.40
2022-09-27T12:05:04.949Z,14.60
2022-09-27T12:07:54.756Z,14.90
2022-09-27T12:10:25.001Z,15.20
2022-09-27T12:12:57.850Z,15.20
2022-09-27T12:15:29.353Z,15.20
2022-09-27T12:18:28.711Z,15.30
2022-09-27T12:20:57.098Z,15.10
2022-09-27T12:23:36.379Z,14.80
2022-09-27T12:26:10.001Z,14.80
2022-09-27T12:29:06.630Z,14.80
2022-09-27T12:31:47.245Z,14.90
2022-09-27T12:34:20.399Z,15.00
2022-09-27T12:36:59.278Z,14.80
2022-09-27T12:39:34.745Z,14.80
2022-09-27T12:42:07.616Z,14.80
2022-09-27T12:44:40.158Z,15.00
2022-09-27T12:47:07.614Z,15.00
2022-09-27T12:50:12.498Z,14.90
2022-09-27T12:52:47.016Z,14.80
2022-09-27T12:55:35.825Z,14.80
2022-09-27T12:58:17.934Z,14.80
2022-09-27T13:00:56.159Z,14.80
2022-09-27T13:03:47.667Z,14.80
2022-09-27T13:06:28.937Z,14.70
2022-09-27T13:09:15.812Z,14.70
2022-09-27T13:12:08.616Z,14.60
2022-09-27T13:14:45.379Z,14.50
2022-09-27T13:17:34.369Z,14.40
2022-09-27T13:20:27.429Z,14.20
2022-09-27T13:22:57.991Z,14.10
2022-09-27T13:25:56.622Z,13.80
2022-09-27T13:28:29.916Z,13.60
2022-09-27T13:31:15.951Z,13.60
2022-09-27T13:33:47.655Z,13.60
2022-09-27T13:36:23.840Z,13.70
2022-09-27T13:39:00.413Z,13.70
2022-09-27T13:41:43.226Z,13.50
2022-09-27T13:44:18.644Z,13.40
2022-09-27T13:47:14.212Z,13.40
2022-09-27T13:49:44.742Z,13.40
2022-09-27T13:52:36.240Z,13.60
2022-09-27T13:55:39.065Z,13.80
2022-09-27T13:58:27.874Z,14.30
2022-09-27T14:00:59.246Z,14.80
2022-09-27T14:03:37.795Z,15.10
2022-09-27T14:06:09.049Z,15.20
2022-09-27T14:08:52.788Z,15.20
2022-09-27T14:11:25.900Z,15.10
2022-09-27T14:13:53.675Z,14.90
2022-09-27T14:16:21.324Z,14.80
2022-09-27T14:18:53.441Z,14.70
2022-09-27T14:21:32.108Z,14.60
2022-09-27T14:24:22.352Z,14.50
2022-09-27T14:27:02.979Z,14.50
2022-09-27T14:29:32.921Z,14.50
2022-09-27T14:32:10.400Z,14.70
2022-09-27T14:34:37.692Z,14.80
2022-09-27T14:37:05.433Z,14.90
2022-09-27T14:39:34.805Z,14.90
2022-09-27T14:42:16.800Z,14.80
2022-09-27T14:44:45.110Z,14.70
2022-09-27T14:47:24.213Z,14.60
2022-09-27T14:49:54.943Z,14.50
2022-09-27T14:52:31.309Z,14.30
2022-09-27T14:55:07.694Z,14.30
2022-09-27T14:57:36.371Z,14.20
2022-09-27T15:00:32.836Z,14.20
2022-09-27T15:03:02.477Z,14.10
2022-09-27T15:05:32.656Z,13.90
2022-09-27T15:08:06.752Z,13.70
2022-09-27T15:10:38.808Z,13.50
2022-09-27T15:13:09.274Z,13.20
2022-09-27T15:15:38.260Z,13.00
2022-09-27T15:18:32.855Z,12.80
2022-09-27T15:21:03.174Z,12.60
2022-09-27T15:23:36.798Z,12.40
2022-09-27T15:26:19.671Z,12.20
2022-09-27T15:28:49.467Z,12.10
2022-09-27T15:31:17.359Z,12.10
2022-09-27T15:33:54.971Z,12.00
2022-09-27T15:36:41.266Z,12.00
2022-09-27T15:39:09.649Z,12.10
2022-09-27T15:42:02.420Z,12.10
2022-09-27T15:44:46.669Z,12.20
2022-09-27T15:47:32.651Z,12.30
2022-09-27T15:50:15.493Z,12.30
2022-09-27T15:52:50.085Z,12.30
2022-09-27T15:55:19.180Z,12.40
2022-09-27T15:57:52.876Z,12.30
2022-09-27T16:00:20.868Z,12.30
2022-09-27T16:02:48.477Z,12.30
2022-09-27T16:05:15.669Z,12.20
2022-09-27T16:07:45.355Z,12.10
2022-09-27T16:10:19.558Z,12.00
2022-09-27T16:12:47.062Z,11.90
2022-09-27T16:15:15.487Z,11.80
2022-09-27T16:17:42.844Z,11.70
2022-09-27T16:20:31.045Z,11.60
2022-09-27T16:23:01.822Z,11.50
2022-09-27T16:25:34.037Z,11.30
2022-09-27T16:28:05.470Z,11.20
2022-09-27T16:30:35.170Z,11.20
2022-09-27T16:33:03.449Z,11.10
2022-09-27T16:35:30.546Z,11.10
2022-09-27T16:37:59.870Z,11.00
2022-09-27T16:40:27.319Z,10.90
2022-09-27T16:42:54.425Z,10.80
2022-09-27T16:45:21.540Z,10.70
2022-09-27T16:47:51.616Z,10.60
2022-09-27T16:50:19.050Z,10.50
2022-09-27T16:52:46.153Z,10.40
2022-09-27T16:55:17.157Z,10.30
2022-09-27T16:57:44.281Z,10.20
2022-09-27T17:00:12.024Z,10.10
2022-09-27T17:02:39.640Z,10.00
2022-09-27T17:05:07.352Z,9.90
2022-09-27T17:07:34.877Z,9.80
2022-09-27T17:10:02.391Z,9.70
2022-09-27T17:12:34.298Z,9.70
2022-09-27T17:15:01.687Z,9.60
2022-09-27T17:17:31.485Z,9.50
2022-09-27T17:19:58.909Z,9.50
2022-09-27T17:22:26.290Z,9.50
2022-09-27T17:24:54.005Z,9.50
2022-09-27T17:27:25.996Z,9.40
2022-09-27T17:29:55.762Z,9.30
2022-09-27T17:32:23.414Z,9.30
2022-09-27T17:34:51.622Z,9.20
2022-09-27T17:37:19.428Z,9.20
2022-09-27T17:39:46.994Z,9.10
2022-09-27T17:42:14.090Z,9.10
2022-09-27T17:44:43.815Z,9.00
2022-09-27T17:47:14.390Z,9.00
2022-09-27T17:49:41.699Z,8.90
2022-09-27T17:52:11.442Z,8.90
2022-09-27T17:54:38.837Z,8.90
2022-09-27T17:57:08.561Z,8.80
2022-09-27T17:59:37.894Z,8.80
2022-09-27T18:02:05.466Z,8.80
2022-09-27T18:04:33.138Z,8.70
2022-09-27T18:07:00.560Z,8.70
2022-09-27T18:09:28.650Z,8.70
2022-09-27T18:11:56.086Z,8.60
2022-09-27T18:14:26.699Z,8.70
2022-09-27T18:16:54.428Z,8.60
2022-09-27T18:19:22.020Z,8.60
2022-09-27T18:21:49.300Z,8.60
2022-09-27T18:24:18.357Z,8.60
2022-09-27T18:26:45.823Z,8.60
2022-09-27T18:29:19.720Z,8.60
2022-09-27T18:31:48.974Z,8.60
2022-09-27T18:34:18.419Z,8.60
2022-09-27T18:36:46.586Z,8.50
2022-09-27T18:39:17.289Z,8.60
2022-09-27T18:41:44.717Z,8.60
2022-09-27T18:44:14.568Z,8.60
2022-09-27T18:46:44.756Z,8.60
2022-09-27T18:49:14.841Z,8.60
2022-09-27T18:51:44.890Z,8.70
2022-09-27T18:54:21.298Z,8.70
2022-09-27T18:56:51.193Z,8.70
2022-09-27T18:59:19.197Z,8.70
2022-09-27T19:01:46.560Z,8.70
2022-09-27T19:04:22.897Z,8.70
2022-09-27T19:06:53.181Z,8.70
2022-09-27T19:09:21.046Z,8.80
2022-09-27T19:11:48.279Z,8.80
2022-09-27T19:14:18.790Z,8.80
2022-09-27T19:16:46.805Z,8.80
2022-09-27T19:19:15.277Z,8.80
2022-09-27T19:21:42.991Z,8.70
2022-09-27T19:24:10.123Z,8.70
2022-09-27T19:26:37.204Z,8.70
2022-09-27T19:29:04.932Z,8.60
2022-09-27T19:31:32.603Z,8.50
2022-09-27T19:34:04.530Z,8.50
2022-09-27T19:36:32.210Z,8.50
2022-09-27T19:38:59.650Z,8.40
2022-09-27T19:41:27.017Z,8.30
2022-09-27T19:43:57.559Z,8.30
2022-09-27T19:46:27.567Z,8.40
2022-09-27T19:48:55.997Z,8.30
2022-09-27T19:51:27.854Z,8.30
2022-09-27T19:53:55.858Z,8.30
2022-09-27T19:56:24.001Z,8.30
2022-09-27T19:58:54.404Z,8.30
2022-09-27T20:01:25.437Z,8.40
2022-09-27T20:03:56.224Z,8.50
2022-09-27T20:06:25.859Z,8.50
2022-09-27T20:08:53.152Z,8.60
2022-09-27T20:11:23.647Z,8.60
2022-09-27T20:13:52.928Z,8.60
2022-09-27T20:16:25.453Z,8.70
2022-09-27T20:18:56.788Z,8.70
2022-09-27T20:21:27.181Z,8.70
2022-09-27T20:23:57.219Z,8.70
2022-09-27T20:26:28.674Z,8.80
2022-09-27T20:28:58.792Z,8.80
2022-09-27T20:31:36.687Z,8.80
2022-09-27T20:34:09.320Z,8.80
2022-09-27T20:36:38.706Z,8.80
2022-09-27T20:39:08.270Z,8.80
2022-09-27T20:41:43.004Z,8.80
2022-09-27T20:44:15.786Z,8.80
2022-09-27T20:46:46.559Z,8.80
2022-09-27T20:49:20.536Z,8.80
2022-09-27T20:51:47.909Z,8.80
2022-09-27T20:54:15.717Z,8.80
2022-09-27T20:56:45.265Z,8.90
2022-09-27T20:59:21.170Z,8.90
2022-09-27T21:01:51.773Z,8.90
2022-09-27T21:04:22.274Z,8.90
2022-09-27T21:06:51.274Z,8.90
2022-09-27T21:09:18.268Z,8.80
2022-09-27T21:11:50.790Z,8.80
2022-09-27T21:14:18.267Z,8.80
2022-09-27T21:16:45.702Z,8.80
2022-09-27T21:19:12.912Z,8.80
2022-09-27T21:21:40.508Z,8.80
2022-09-27T21:24:10.087Z,8.80
2022-09-27T21:26:39.623Z,8.90
2022-09-27T21:29:10.405Z,8.90
2022-09-27T21:31:37.513Z,8.90
2022-09-27T21:34:05.849Z,9.00
2022-09-27T21:36:38.438Z,9.10
2022-09-27T21:39:07.185Z,9.10
2022-09-27T21:41:35.038Z,9.10
2022-09-27T21:44:10.278Z,9.00
2022-09-27T21:46:43.547Z,9.00
2022-09-27T21:49:10.702Z,9.00
2022-09-27T21:51:40.235Z,8.90
2022-09-27T21:54:10.223Z,8.90
2022-09-27T21:56:40.630Z,8.90
2022-09-27T21:59:11.002Z,8.90
2022-09-27T22:01:38.757Z,8.90
2022-09-27T22:04:09.336Z,8.90
2022-09-27T22:06:38.224Z,8.90
2022-09-27T22:09:12.102Z,8.90
2022-09-27T22:11:41.332Z,8.90
2022-09-27T22:14:08.724Z,8.90
2022-09-27T22:16:35.872Z,8.80
2022-09-27T22:19:05.837Z,8.80
2022-09-27T22:21:37.449Z,8.80
2022-09-27T22:24:12.294Z,8.70
2022-09-27T22:26:46.154Z,8.70
2022-09-27T22:29:13.275Z,8.60
2022-09-27T22:31:43.031Z,8.60
2022-09-27T22:34:14.292Z,8.60
2022-09-27T22:36:41.595Z,8.50
2022-09-27T22:39:10.856Z,8.50
2022-09-27T22:41:37.910Z,8.40
2022-09-27T22:44:05.619Z,8.40
2022-09-27T22:46:35.208Z,8.30
2022-09-27T22:49:02.314Z,8.30
2022-09-27T22:51:29.914Z,8.30
2022-09-27T22:53:59.407Z,8.30
2022-09-27T22:56:26.526Z,8.30
2022-09-27T22:58:53.824Z,8.30
2022-09-27T23:01:22.941Z,8.30
2022-09-27T23:03:53.638Z,8.30
2022-09-27T23:06:22.409Z,8.30
2022-09-27T23:08:50.491Z,8.20
2022-09-27T23:11:20.992Z,8.30
2022-09-27T23:13:49.327Z,8.30
2022-09-27T23:16:20.965Z,8.40
2022-09-27T23:18:48.178Z,8.40
2022-09-27T23:21:16.453Z,8.40
2022-09-27T23:23:45.205Z,8.50
2022-09-27T23:26:14.854Z,8.60
2022-09-27T23:28:44.765Z,8.60
2022-09-27T23:31:14.628Z,8.70
2022-09-27T23:33:43.776Z,8.70
2022-09-27T23:36:14.039Z,8.80
2022-09-27T23:38:41.604Z,8.80
2022-09-27T23:41:11.287Z,8.80
2022-09-27T23:43:41.842Z,8.90
2022-09-27T23:46:12.117Z,8.80
2022-09-27T23:48:39.803Z,8.80
2022-09-27T23:51:10.467Z,8.90
2022-09-27T23:53:38.636Z,8.90
2022-09-27T23:56:08.716Z,8.90
2022-09-27T23:58:40.725Z,8.90
